createdAt,value
2019-01-28T04:01:02.590Z,0.00
2019-01-28T04:02:02.732Z,0.00
2019-01-28T04:03:02.894Z,0.00
2019-01-28T04:04:03.001Z,0.00
2019-01-28T04:05:03.213Z,0.00
2019-01-28T04:06:03.314Z,0.00
2019-01-28T04:07:03.533Z,0.00
2019-01-28T04:08:03.665Z,0.00
2019-01-28T04:09:03.785Z,0.00
2019-01-28T04:10:03.996Z,0.00
2019-01-28T04:11:04.202Z,0.00
2019-01-28T04:12:04.296Z,0.00
2019-01-28T04:13:04.492Z,0.00
2019-01-28T04:14:04.702Z,0.00
2019-01-28T04:15:04.804Z,0.00
2019-01-28T04:16:04.951Z,0.00
2019-01-28T04:17:05.147Z,0.00
2019-01-28T04:18:05.279Z,0.00
2019-01-28T04:19:05.487Z,0.00
2019-01-28T04:20:05.621Z,0.00
2019-01-28T04:21:05.799Z,0.00
2019-01-28T04:22:05.926Z,0.00
2019-01-28T04:23:06.083Z,0.00
2019-01-28T04:24:06.244Z,0.00
2019-01-28T04:25:06.442Z,0.00
2019-01-28T04:26:06.620Z,0.00
2019-01-28T04:27:06.815Z,0.00
2019-01-28T04:28:06.988Z,0.00
2019-01-28T04:29:07.089Z,0.00
2019-01-28T04:30:07.261Z,0.00
2019-01-28T04:31:07.426Z,0.00
2019-01-28T04:32:07.534Z,0.00
2019-01-28T04:33:07.742Z,0.00
2019-01-28T04:34:07.849Z,0.00
2019-01-28T04:35:08.031Z,0.00
2019-01-28T04:36:08.186Z,0.00
2019-01-28T04:37:08.317Z,0.00
2019-01-28T04:38:08.470Z,0.00
2019-01-28T04:39:08.662Z,0.00
2019-01-28T04:40:08.855Z,0.00
2019-01-28T04:41:09.039Z,0.00
2019-01-28T04:42:09.186Z,0.00
2019-01-28T04:43:09.337Z,0.00
2019-01-28T04:44:09.463Z,0.00
2019-01-28T04:45:09.659Z,0.00
2019-01-28T04:46:09.812Z,0.00
2019-01-28T04:47:09.907Z,0.00
2019-01-28T04:48:10.086Z,0.00
2019-01-28T04:49:10.268Z,0.00
2019-01-28T04:50:10.416Z,0.00
2019-01-28T04:51:10.630Z,0.00
2019-01-28T04:52:10.710Z,0.00
2019-01-28T04:53:10.862Z,0.00
2019-01-28T04:54:11.003Z,0.00
2019-01-28T04:55:11.165Z,0.00
2019-01-28T04:56:11.389Z,0.00
2019-01-28T04:57:11.549Z,0.00
2019-01-28T04:58:11.664Z,0.00
2019-01-28T04:59:11.873Z,0.00
2019-01-28T05:00:12.019Z,0.00
2019-01-28T05:01:12.112Z,0.00
2019-01-28T05:02:12.281Z,0.00
2019-01-28T05:03:12.517Z,0.00
2019-01-28T05:04:12.665Z,0.00
2019-01-28T05:05:12.824Z,0.00
2019-01-28T05:06:12.967Z,0.00
2019-01-28T05:07:13.105Z,0.00
2019-01-28T05:08:13.255Z,0.00
2019-01-28T05:09:13.396Z,0.00
2019-01-28T05:10:13.542Z,0.00
2019-01-28T05:11:13.768Z,0.00
2019-01-28T05:12:13.881Z,0.00
2019-01-28T05:13:14.054Z,0.00
2019-01-28T05:14:14.152Z,0.00
2019-01-28T05:15:14.336Z,0.00
2019-01-28T05:16:14.472Z,0.00
2019-01-28T05:17:14.714Z,0.00
2019-01-28T05:18:14.843Z,0.00
2019-01-28T05:19:14.981Z,0.00
2019-01-28T05:20:15.126Z,0.00
2019-01-28T05:21:15.288Z,0.00
2019-01-28T05:22:15.519Z,0.00
2019-01-28T05:23:15.600Z,0.00
2019-01-28T05:24:15.845Z,0.00
2019-01-28T05:25:15.949Z,0.00
2019-01-28T05:26:16.126Z,0.00
2019-01-28T05:27:16.250Z,0.00
2019-01-28T05:28:16.389Z,0.00
2019-01-28T05:29:16.593Z,0.00
2019-01-28T05:30:16.769Z,0.00
2019-01-28T05:31:16.901Z,0.00
2019-01-28T05:32:17.008Z,0.00
2019-01-28T05:33:17.271Z,0.00
2019-01-28T05:34:17.386Z,0.00
2019-01-28T05:35:17.550Z,0.00
2019-01-28T05:36:17.705Z,0.00
2019-01-28T05:37:17.901Z,0.00
2019-01-28T05:38:18.094Z,0.00
2019-01-28T05:39:18.168Z,0.00
2019-01-28T05:40:18.317Z,0.00
2019-01-28T05:41:18.442Z,0.00
2019-01-28T05:42:18.636Z,0.00
2019-01-28T05:43:18.820Z,0.00
2019-01-28T05:44:18.991Z,0.00
2019-01-28T05:45:19.114Z,0.00
2019-01-28T05:46:19.244Z,0.00
2019-01-28T05:47:19.472Z,0.00
2019-01-28T05:48:19.607Z,0.00
2019-01-28T05:49:19.784Z,0.00
2019-01-28T05:50:19.904Z,0.00
2019-01-28T05:51:20.063Z,0.00
2019-01-28T05:52:20.194Z,0.00
2019-01-28T05:53:20.339Z,0.00
2019-01-28T05:54:20.572Z,0.00
2019-01-28T05:55:20.703Z,0.00
2019-01-28T05:56:20.849Z,0.00
2019-01-28T05:57:20.998Z,0.00
2019-01-28T05:58:21.183Z,0.00
2019-01-28T05:59:21.355Z,0.00
2019-01-28T06:00:21.481Z,0.00
2019-01-28T06:01:21.615Z,0.00
2019-01-28T06:02:21.899Z,0.00
2019-01-28T06:03:21.942Z,0.00
2019-01-28T06:04:22.157Z,0.00
2019-01-28T06:05:22.257Z,0.00
2019-01-28T06:06:22.467Z,0.00
2019-01-28T06:07:22.577Z,0.00
2019-01-28T06:08:22.777Z,0.00
2019-01-28T06:09:23.696Z,0.00
2019-01-28T06:10:23.057Z,0.00
2019-01-28T06:11:23.221Z,0.00
2019-01-28T06:12:23.320Z,0.00
2019-01-28T06:13:23.505Z,0.00
2019-01-28T06:14:23.751Z,0.00
2019-01-28T06:15:23.802Z,0.00
2019-01-28T06:16:23.975Z,0.00
2019-01-28T06:17:24.189Z,0.00
2019-01-28T06:18:24.346Z,0.00
2019-01-28T06:19:24.510Z,0.00
2019-01-28T06:20:24.684Z,0.00
2019-01-28T06:21:24.765Z,0.00
2019-01-28T06:22:24.912Z,0.00
2019-01-28T06:23:25.084Z,0.00
2019-01-28T06:24:25.256Z,0.00
2019-01-28T06:25:25.433Z,0.00
2019-01-28T06:26:25.619Z,0.00
2019-01-28T06:27:25.737Z,0.00
2019-01-28T06:28:25.881Z,0.00
2019-01-28T06:29:26.079Z,0.00
2019-01-28T06:30:26.240Z,0.00
2019-01-28T06:31:26.409Z,0.00
2019-01-28T06:32:26.639Z,0.00
2019-01-28T06:33:26.696Z,0.00
2019-01-28T06:34:26.894Z,0.00
2019-01-28T06:35:27.072Z,0.00
2019-01-28T06:36:27.162Z,0.00
2019-01-28T06:37:27.324Z,0.00
2019-01-28T06:38:27.533Z,0.00
2019-01-28T06:39:27.653Z,0.00
2019-01-28T06:40:27.787Z,0.00
2019-01-28T06:41:27.929Z,0.00
2019-01-28T06:42:28.117Z,0.00
2019-01-28T06:43:28.267Z,0.00
2019-01-28T06:44:28.532Z,0.00
2019-01-28T06:45:28.603Z,0.00
2019-01-28T06:46:28.763Z,0.00
2019-01-28T06:47:28.939Z,0.00
2019-01-28T06:48:29.072Z,0.00
2019-01-28T06:49:29.227Z,0.00
2019-01-28T06:50:29.339Z,0.00
2019-01-28T06:51:29.524Z,0.00
2019-01-28T06:52:29.651Z,0.00
2019-01-28T06:53:29.888Z,0.00
2019-01-28T06:54:30.066Z,0.00
2019-01-28T06:55:30.162Z,0.00
2019-01-28T06:56:30.352Z,0.00
2019-01-28T06:57:30.467Z,0.00
2019-01-28T06:58:30.545Z,0.00
2019-01-28T06:59:30.765Z,0.00
2019-01-28T07:00:30.873Z,0.00
2019-01-28T07:01:31.072Z,0.00
2019-01-28T07:02:31.226Z,0.00
2019-01-28T07:03:31.370Z,0.00
2019-01-28T07:04:31.545Z,0.00
2019-01-28T07:05:31.726Z,0.00
2019-01-28T07:06:31.826Z,0.00
2019-01-28T07:07:31.983Z,0.00
2019-01-28T07:08:32.156Z,5.63
2019-01-28T07:09:32.431Z,5.63
2019-01-28T07:10:32.535Z,5.63
2019-01-28T07:11:32.636Z,5.63
2019-01-28T07:12:32.824Z,5.63
2019-01-28T07:13:32.975Z,5.63
2019-01-28T07:14:33.114Z,5.63
2019-01-28T07:15:33.255Z,5.63
2019-01-28T07:16:33.429Z,5.63
2019-01-28T07:17:33.542Z,5.63
2019-01-28T07:18:33.747Z,5.63
2019-01-28T07:19:33.865Z,5.63
2019-01-28T07:20:34.035Z,5.63
2019-01-28T07:21:34.217Z,5.63
2019-01-28T07:22:34.343Z,5.63
2019-01-28T07:23:34.463Z,11.25
2019-01-28T07:24:34.619Z,11.25
2019-01-28T07:25:34.784Z,11.25
2019-01-28T07:26:34.996Z,11.25
2019-01-28T07:27:35.141Z,11.25
2019-01-28T07:28:35.299Z,11.25
2019-01-28T07:29:35.431Z,11.25
2019-01-28T07:30:35.583Z,11.25
2019-01-28T07:31:35.765Z,11.25
2019-01-28T07:32:35.900Z,11.25
2019-01-28T07:33:36.120Z,11.25
2019-01-28T07:34:36.256Z,16.88
2019-01-28T07:35:36.414Z,16.88
2019-01-28T07:36:36.577Z,16.88
2019-01-28T07:37:36.826Z,16.88
2019-01-28T07:38:36.941Z,16.88
2019-01-28T07:39:37.070Z,16.88
2019-01-28T07:40:37.262Z,22.50
2019-01-28T07:41:37.445Z,22.50
2019-01-28T07:42:37.580Z,22.50
2019-01-28T07:43:37.821Z,22.50
2019-01-28T07:44:37.961Z,22.50
2019-01-28T07:45:44.876Z,22.50
2019-01-28T07:46:38.294Z,22.50
2019-01-28T07:47:38.415Z,22.50
2019-01-28T07:48:38.525Z,22.50
2019-01-28T07:49:38.701Z,22.50
2019-01-28T07:50:38.866Z,22.50
2019-01-28T07:51:39.001Z,22.50
2019-01-28T07:52:39.207Z,22.50
2019-01-28T07:53:39.392Z,22.50
2019-01-28T07:54:39.563Z,22.50
2019-01-28T07:55:39.703Z,22.50
2019-01-28T07:56:39.881Z,22.50
2019-01-28T07:57:40.074Z,22.50
2019-01-28T07:58:40.190Z,22.50
2019-01-28T07:59:40.356Z,22.50
2019-01-28T08:00:40.530Z,22.50
2019-01-28T08:01:40.679Z,22.50
2019-01-28T08:02:40.883Z,22.50
2019-01-28T08:03:40.994Z,22.50
2019-01-28T08:04:41.155Z,22.50
2019-01-28T08:05:41.346Z,28.13
2019-01-28T08:06:41.476Z,28.13
2019-01-28T08:07:41.616Z,28.13
2019-01-28T08:08:41.853Z,28.13
2019-01-28T08:09:41.941Z,28.13
2019-01-28T08:10:42.062Z,33.75
2019-01-28T08:11:42.312Z,33.75
2019-01-28T08:12:42.476Z,33.75
2019-01-28T08:13:42.623Z,33.75
2019-01-28T08:14:42.757Z,39.38
2019-01-28T08:15:42.873Z,39.38
2019-01-28T08:16:43.058Z,45.00
2019-01-28T08:17:43.156Z,45.00
2019-01-28T08:18:43.350Z,45.00
2019-01-28T08:19:43.528Z,50.63
2019-01-28T08:20:43.687Z,56.25
2019-01-28T08:21:43.865Z,56.25
2019-01-28T08:22:44.010Z,56.25
2019-01-28T08:23:44.151Z,56.25
2019-01-28T08:24:44.339Z,61.88
2019-01-28T08:25:44.424Z,67.50
2019-01-28T08:26:44.600Z,61.88
2019-01-28T08:27:44.776Z,67.50
2019-01-28T08:28:44.939Z,67.50
2019-01-28T08:29:45.147Z,67.50
2019-01-28T08:30:45.271Z,67.50
2019-01-28T08:31:45.437Z,67.50
2019-01-28T08:32:45.581Z,67.50
2019-01-28T08:33:45.770Z,73.13
2019-01-28T08:34:45.919Z,78.75
2019-01-28T08:35:46.034Z,78.75
2019-01-28T08:36:46.227Z,78.75
2019-01-28T08:37:46.411Z,84.38
2019-01-28T08:38:46.551Z,84.38
2019-01-28T08:39:46.678Z,95.63
2019-01-28T08:40:46.856Z,101.25
2019-01-28T08:41:47.020Z,101.25
2019-01-28T08:42:47.154Z,90.00
2019-01-28T08:43:47.324Z,90.00
2019-01-28T08:44:47.514Z,95.63
2019-01-28T08:45:47.615Z,90.00
2019-01-28T08:46:47.832Z,90.00
2019-01-28T08:47:47.960Z,84.38
2019-01-28T08:48:48.093Z,78.75
2019-01-28T08:49:48.259Z,78.75
2019-01-28T08:50:48.399Z,90.00
2019-01-28T08:51:48.583Z,90.00
2019-01-28T08:52:48.712Z,101.25
2019-01-28T08:53:48.886Z,101.25
2019-01-28T08:54:49.007Z,95.63
2019-01-28T08:55:49.209Z,106.88
2019-01-28T08:56:49.361Z,106.88
2019-01-28T08:57:49.536Z,106.88
2019-01-28T08:58:49.690Z,101.25
2019-01-28T08:59:49.818Z,101.25
2019-01-28T09:00:49.975Z,101.25
2019-01-28T09:01:50.202Z,101.25
2019-01-28T09:02:50.293Z,95.63
2019-01-28T09:03:50.501Z,90.00
2019-01-28T09:04:50.684Z,84.38
2019-01-28T09:05:50.780Z,84.38
2019-01-28T09:06:50.959Z,84.38
2019-01-28T09:07:51.065Z,84.38
2019-01-28T09:08:51.300Z,78.75
2019-01-28T09:09:51.388Z,84.38
2019-01-28T09:10:51.591Z,90.00
2019-01-28T09:11:51.762Z,84.38
2019-01-28T09:12:51.909Z,90.00
2019-01-28T09:13:52.106Z,90.00
2019-01-28T09:14:52.213Z,95.63
2019-01-28T09:15:52.367Z,101.25
2019-01-28T09:16:52.532Z,112.50
2019-01-28T09:17:52.737Z,112.50
2019-01-28T09:18:52.837Z,112.50
2019-01-28T09:19:53.007Z,123.75
2019-01-28T09:20:53.158Z,123.75
2019-01-28T09:21:53.381Z,118.13
2019-01-28T09:22:53.475Z,118.13
2019-01-28T09:23:53.613Z,123.75
2019-01-28T09:24:53.761Z,140.63
2019-01-28T09:25:53.947Z,140.63
2019-01-28T09:26:54.143Z,135.00
2019-01-28T09:27:54.336Z,140.63
2019-01-28T09:28:54.495Z,140.63
2019-01-28T09:29:54.655Z,146.25
2019-01-28T09:30:54.763Z,163.13
2019-01-28T09:31:54.978Z,168.75
2019-01-28T09:32:55.126Z,151.88
2019-01-28T09:33:55.277Z,146.25
2019-01-28T09:34:55.493Z,146.25
2019-01-28T09:35:55.641Z,151.88
2019-01-28T09:36:55.839Z,151.88
2019-01-28T09:37:55.938Z,151.88
2019-01-28T09:38:56.105Z,163.13
2019-01-28T09:39:56.277Z,157.50
2019-01-28T09:40:56.372Z,163.13
2019-01-28T09:41:56.580Z,163.13
2019-01-28T09:42:56.741Z,157.50
2019-01-28T09:43:56.886Z,157.50
2019-01-28T09:44:57.068Z,146.25
2019-01-28T09:45:57.157Z,140.63
2019-01-28T09:46:57.341Z,135.00
2019-01-28T09:47:57.455Z,123.75
2019-01-28T09:48:57.631Z,123.75
2019-01-28T09:49:57.795Z,118.13
2019-01-28T09:50:57.992Z,118.13
2019-01-28T09:51:58.164Z,118.13
2019-01-28T09:52:58.222Z,118.13
2019-01-28T09:53:58.439Z,112.50
2019-01-28T09:54:58.612Z,118.13
2019-01-28T09:55:58.760Z,118.13
2019-01-28T09:56:58.964Z,118.13
2019-01-28T09:57:59.060Z,118.13
2019-01-28T09:58:59.187Z,118.13
2019-01-28T09:59:59.374Z,118.13
2019-01-28T10:00:59.592Z,118.13
2019-01-28T10:01:59.687Z,118.13
2019-01-28T10:02:59.869Z,112.50
2019-01-28T10:04:00.028Z,112.50
2019-01-28T10:05:00.265Z,118.13
2019-01-28T10:06:00.337Z,135.00
2019-01-28T10:07:01.287Z,151.88
2019-01-28T10:08:00.710Z,168.75
2019-01-28T10:09:00.906Z,174.38
2019-01-28T10:10:01.044Z,174.38
2019-01-28T10:11:01.122Z,185.63
2019-01-28T10:12:01.353Z,196.88
2019-01-28T10:13:01.511Z,196.88
2019-01-28T10:14:01.629Z,191.25
2019-01-28T10:15:01.775Z,180.00
2019-01-28T10:16:01.947Z,191.25
2019-01-28T10:17:02.079Z,185.63
2019-01-28T10:18:02.251Z,196.88
2019-01-28T10:19:02.467Z,202.50
2019-01-28T10:20:02.634Z,208.13
2019-01-28T10:21:02.835Z,202.50
2019-01-28T10:22:02.904Z,219.38
2019-01-28T10:23:03.041Z,230.63
2019-01-28T10:24:03.279Z,236.25
2019-01-28T10:25:03.437Z,247.50
2019-01-28T10:26:03.572Z,241.88
2019-01-28T10:27:03.682Z,247.50
2019-01-28T10:28:03.912Z,253.13
2019-01-28T10:29:04.071Z,258.75
2019-01-28T10:30:04.191Z,247.50
2019-01-28T10:31:04.411Z,236.25
2019-01-28T10:32:04.512Z,208.13
2019-01-28T10:33:04.723Z,213.75
2019-01-28T10:34:06.321Z,191.25
2019-01-28T10:35:05.064Z,163.13
2019-01-28T10:36:05.156Z,140.63
2019-01-28T10:37:05.300Z,123.75
2019-01-28T10:38:05.442Z,123.75
2019-01-28T10:39:05.634Z,123.75
2019-01-28T10:40:07.095Z,118.13
2019-01-28T10:41:05.970Z,118.13
2019-01-28T10:42:09.817Z,129.38
2019-01-28T10:43:06.289Z,135.00
2019-01-28T10:44:10.259Z,140.63
2019-01-28T10:45:06.640Z,151.88
2019-01-28T10:46:06.774Z,168.75
2019-01-28T10:47:06.891Z,196.88
2019-01-28T10:48:07.049Z,219.38
2019-01-28T10:49:07.258Z,230.63
2019-01-28T10:50:07.406Z,247.50
2019-01-28T10:51:07.512Z,286.88
2019-01-28T10:52:07.745Z,320.63
2019-01-28T10:53:07.865Z,360.00
2019-01-28T10:54:08.016Z,399.38
2019-01-28T10:55:08.175Z,421.88
2019-01-28T10:56:08.323Z,444.38
2019-01-28T10:57:08.541Z,461.25
2019-01-28T10:58:08.676Z,427.50
2019-01-28T10:59:08.811Z,461.25
2019-01-28T11:00:11.609Z,433.13
2019-01-28T11:01:09.145Z,371.25
2019-01-28T11:02:09.314Z,343.13
2019-01-28T11:03:09.428Z,309.38
2019-01-28T11:04:09.572Z,331.88
2019-01-28T11:05:09.745Z,371.25
2019-01-28T11:06:09.957Z,365.63
2019-01-28T11:07:10.049Z,371.25
2019-01-28T11:08:10.247Z,393.75
2019-01-28T11:09:10.433Z,455.63
2019-01-28T11:10:10.672Z,472.50
2019-01-28T11:11:10.729Z,478.13
2019-01-28T11:12:10.877Z,478.13
2019-01-28T11:13:11.165Z,444.38
2019-01-28T11:14:11.222Z,399.38
2019-01-28T11:15:11.448Z,365.63
2019-01-28T11:16:11.577Z,354.38
2019-01-28T11:17:12.200Z,303.75
2019-01-28T11:18:11.828Z,270.00
2019-01-28T11:19:12.058Z,241.88
2019-01-28T11:20:12.256Z,236.25
2019-01-28T11:21:12.319Z,236.25
2019-01-28T11:22:12.496Z,241.88
2019-01-28T11:23:12.763Z,253.13
2019-01-28T11:24:12.787Z,241.88
2019-01-28T11:25:12.964Z,225.00
2019-01-28T11:26:13.233Z,213.75
2019-01-28T11:27:13.206Z,219.38
2019-01-28T11:28:13.365Z,213.75
2019-01-28T11:29:13.569Z,202.50
2019-01-28T11:30:13.736Z,196.88
2019-01-28T11:31:13.937Z,191.25
2019-01-28T11:32:14.111Z,196.88
2019-01-28T11:33:14.191Z,202.50
2019-01-28T11:34:14.439Z,202.50
2019-01-28T11:35:14.731Z,196.88
2019-01-28T11:36:14.735Z,202.50
2019-01-28T11:37:15.321Z,196.88
2019-01-28T11:38:15.150Z,196.88
2019-01-28T11:39:15.309Z,185.63
2019-01-28T11:40:15.391Z,180.00
2019-01-28T11:41:15.663Z,185.63
2019-01-28T11:42:15.912Z,191.25
2019-01-28T11:43:15.951Z,208.13
2019-01-28T11:44:16.137Z,202.50
2019-01-28T11:45:16.296Z,191.25
2019-01-28T11:46:16.495Z,196.88
2019-01-28T11:47:16.702Z,213.75
2019-01-28T11:48:16.672Z,230.63
2019-01-28T11:49:16.862Z,247.50
2019-01-28T11:50:17.156Z,236.25
2019-01-28T11:51:17.147Z,208.13
2019-01-28T11:52:17.422Z,191.25
2019-01-28T11:53:17.516Z,180.00
2019-01-28T11:54:17.646Z,163.13
2019-01-28T11:55:17.787Z,163.13
2019-01-28T11:56:18.010Z,168.75
2019-01-28T11:57:18.107Z,168.75
2019-01-28T11:58:18.379Z,157.50
2019-01-28T11:59:18.457Z,146.25
2019-01-28T12:00:18.669Z,140.63
2019-01-28T12:01:18.791Z,135.00
2019-01-28T12:02:18.968Z,140.63
2019-01-28T12:03:19.084Z,163.13
2019-01-28T12:04:19.299Z,191.25
2019-01-28T12:05:19.411Z,202.50
2019-01-28T12:06:19.633Z,202.50
2019-01-28T12:07:19.781Z,191.25
2019-01-28T12:08:19.900Z,174.38
2019-01-28T12:09:20.011Z,146.25
2019-01-28T12:10:20.212Z,129.38
2019-01-28T12:11:20.364Z,118.13
2019-01-28T12:12:20.554Z,118.13
2019-01-28T12:13:20.673Z,123.75
2019-01-28T12:14:20.913Z,123.75
2019-01-28T12:15:21.023Z,118.13
2019-01-28T12:16:21.179Z,118.13
2019-01-28T12:17:21.307Z,118.13
2019-01-28T12:18:21.504Z,118.13
2019-01-28T12:19:21.600Z,118.13
2019-01-28T12:20:21.805Z,112.50
2019-01-28T12:21:21.964Z,106.88
2019-01-28T12:22:22.067Z,106.88
2019-01-28T12:23:22.271Z,112.50
2019-01-28T12:24:22.479Z,118.13
2019-01-28T12:25:22.589Z,118.13
2019-01-28T12:26:22.707Z,118.13
2019-01-28T12:27:22.887Z,112.50
2019-01-28T12:28:23.048Z,106.88
2019-01-28T12:29:23.259Z,112.50
2019-01-28T12:30:23.355Z,118.13
2019-01-28T12:31:23.533Z,118.13
2019-01-28T12:32:23.751Z,129.38
2019-01-28T12:33:23.852Z,140.63
2019-01-28T12:34:24.137Z,129.38
2019-01-28T12:35:24.177Z,118.13
2019-01-28T12:36:24.355Z,106.88
2019-01-28T12:37:24.499Z,95.63
2019-01-28T12:38:24.614Z,95.63
2019-01-28T12:39:24.837Z,101.25
2019-01-28T12:40:25.045Z,101.25
2019-01-28T12:41:25.128Z,118.13
2019-01-28T12:42:25.290Z,129.38
2019-01-28T12:43:25.482Z,140.63
2019-01-28T12:44:25.671Z,157.50
2019-01-28T12:45:25.805Z,174.38
2019-01-28T12:46:26.032Z,168.75
2019-01-28T12:47:26.181Z,151.88
2019-01-28T12:48:26.290Z,140.63
2019-01-28T12:49:26.473Z,123.75
2019-01-28T12:50:26.641Z,101.25
2019-01-28T12:51:26.795Z,84.38
2019-01-28T12:52:26.929Z,78.75
2019-01-28T12:53:27.071Z,78.75
2019-01-28T12:54:27.214Z,84.38
2019-01-28T12:55:27.409Z,95.63
2019-01-28T12:56:27.531Z,112.50
2019-01-28T12:57:27.748Z,129.38
2019-01-28T12:58:27.883Z,135.00
2019-01-28T12:59:28.075Z,123.75
2019-01-28T13:00:28.183Z,140.63
2019-01-28T13:01:28.366Z,135.00
2019-01-28T13:02:28.490Z,129.38
2019-01-28T13:03:28.762Z,112.50
2019-01-28T13:04:28.876Z,112.50
2019-01-28T13:05:29.027Z,101.25
2019-01-28T13:06:29.146Z,95.63
2019-01-28T13:07:29.303Z,101.25
2019-01-28T13:08:29.467Z,101.25
2019-01-28T13:09:29.610Z,95.63
2019-01-28T13:10:29.756Z,101.25
2019-01-28T13:11:29.947Z,106.88
2019-01-28T13:12:30.101Z,118.13
2019-01-28T13:13:30.308Z,118.13
2019-01-28T13:14:30.447Z,118.13
2019-01-28T13:15:30.647Z,140.63
2019-01-28T13:16:30.816Z,140.63
2019-01-28T13:17:30.912Z,157.50
2019-01-28T13:18:31.062Z,163.13
2019-01-28T13:19:31.294Z,146.25
2019-01-28T13:20:31.347Z,146.25
2019-01-28T13:21:31.590Z,146.25
2019-01-28T13:22:31.766Z,140.63
2019-01-28T13:23:31.874Z,146.25
2019-01-28T13:24:31.990Z,151.88
2019-01-28T13:25:32.271Z,157.50
2019-01-28T13:26:32.428Z,157.50
2019-01-28T13:27:32.497Z,157.50
2019-01-28T13:28:32.715Z,157.50
2019-01-28T13:29:32.843Z,157.50
2019-01-28T13:30:32.971Z,146.25
2019-01-28T13:31:33.163Z,146.25
2019-01-28T13:32:33.283Z,146.25
2019-01-28T13:33:33.504Z,135.00
2019-01-28T13:34:33.597Z,146.25
2019-01-28T13:35:33.749Z,151.88
2019-01-28T13:36:33.944Z,157.50
2019-01-28T13:37:34.033Z,146.25
2019-01-28T13:38:34.192Z,146.25
2019-01-28T13:39:34.388Z,151.88
2019-01-28T13:40:34.523Z,151.88
2019-01-28T13:41:34.696Z,146.25
2019-01-28T13:42:34.957Z,146.25
2019-01-28T13:43:35.085Z,151.88
2019-01-28T13:44:35.189Z,135.00
2019-01-28T13:45:35.376Z,140.63
2019-01-28T13:46:35.561Z,135.00
2019-01-28T13:47:35.662Z,157.50
2019-01-28T13:48:35.831Z,157.50
2019-01-28T13:49:38.271Z,163.13
2019-01-28T13:50:36.178Z,180.00
2019-01-28T13:51:36.318Z,180.00
2019-01-28T13:52:36.486Z,146.25
2019-01-28T13:53:36.608Z,135.00
2019-01-28T13:54:36.815Z,118.13
2019-01-28T13:55:36.933Z,106.88
2019-01-28T13:56:37.140Z,106.88
2019-01-28T13:57:37.241Z,112.50
2019-01-28T13:58:37.406Z,106.88
2019-01-28T13:59:37.575Z,112.50
2019-01-28T14:00:37.687Z,112.50
2019-01-28T14:01:37.950Z,112.50
2019-01-28T14:02:38.054Z,112.50
2019-01-28T14:03:38.293Z,106.88
2019-01-28T14:04:38.407Z,112.50
2019-01-28T14:05:38.534Z,123.75
2019-01-28T14:06:38.741Z,129.38
2019-01-28T14:07:38.860Z,140.63
2019-01-28T14:08:39.029Z,135.00
2019-01-28T14:09:39.216Z,129.38
2019-01-28T14:10:39.340Z,123.75
2019-01-28T14:11:39.456Z,118.13
2019-01-28T14:12:39.653Z,123.75
2019-01-28T14:13:39.811Z,129.38
2019-01-28T14:14:40.000Z,146.25
2019-01-28T14:15:40.153Z,157.50
2019-01-28T14:16:40.307Z,157.50
2019-01-28T14:17:40.483Z,146.25
2019-01-28T14:18:40.674Z,146.25
2019-01-28T14:19:46.258Z,157.50
2019-01-28T14:20:40.966Z,157.50
2019-01-28T14:21:41.114Z,146.25
2019-01-28T14:22:41.305Z,140.63
2019-01-28T14:23:41.443Z,135.00
2019-01-28T14:24:41.578Z,123.75
2019-01-28T14:25:41.844Z,129.38
2019-01-28T14:26:41.970Z,135.00
2019-01-28T14:27:42.073Z,123.75
2019-01-28T14:28:42.253Z,118.13
2019-01-28T14:29:42.403Z,112.50
2019-01-28T14:30:42.618Z,112.50
2019-01-28T14:31:42.833Z,101.25
2019-01-28T14:32:43.020Z,90.00
2019-01-28T14:33:43.142Z,84.38
2019-01-28T14:34:43.330Z,78.75
2019-01-28T14:35:43.499Z,84.38
2019-01-28T14:36:43.641Z,84.38
2019-01-28T14:37:43.748Z,84.38
2019-01-28T14:38:43.926Z,84.38
2019-01-28T14:39:44.171Z,90.00
2019-01-28T14:40:44.263Z,95.63
2019-01-28T14:41:44.361Z,90.00
2019-01-28T14:42:44.571Z,90.00
2019-01-28T14:43:44.713Z,78.75
2019-01-28T14:44:45.000Z,73.13
2019-01-28T14:45:45.132Z,73.13
2019-01-28T14:46:45.308Z,67.50
2019-01-28T14:47:45.463Z,67.50
2019-01-28T14:48:49.194Z,67.50
2019-01-28T14:49:45.828Z,67.50
2019-01-28T14:50:45.993Z,61.88
2019-01-28T14:51:46.146Z,56.25
2019-01-28T14:52:46.385Z,61.88
2019-01-28T14:53:46.512Z,61.88
2019-01-28T14:54:46.644Z,56.25
2019-01-28T14:55:46.857Z,50.63
2019-01-28T14:56:46.975Z,39.38
2019-01-28T14:57:47.140Z,28.13
2019-01-28T14:58:47.339Z,22.50
2019-01-28T14:59:47.500Z,22.50
2019-01-28T15:00:47.595Z,22.50
2019-01-28T15:01:47.715Z,22.50
2019-01-28T15:02:47.895Z,28.13
2019-01-28T15:03:48.080Z,22.50
2019-01-28T15:04:48.273Z,22.50
2019-01-28T15:05:48.461Z,28.13
2019-01-28T15:06:48.608Z,28.13
2019-01-28T15:07:48.742Z,28.13
2019-01-28T15:08:48.899Z,28.13
2019-01-28T15:09:49.087Z,28.13
2019-01-28T15:10:49.203Z,28.13
2019-01-28T15:11:49.334Z,28.13
2019-01-28T15:12:49.564Z,28.13
2019-01-28T15:13:49.653Z,22.50
2019-01-28T15:14:49.934Z,22.50
2019-01-28T15:15:50.041Z,22.50
2019-01-28T15:16:50.242Z,22.50
2019-01-28T15:17:50.351Z,22.50
2019-01-28T15:18:50.508Z,22.50
2019-01-28T15:19:50.935Z,22.50
2019-01-28T15:20:50.838Z,28.13
2019-01-28T15:21:50.955Z,33.75
2019-01-28T15:22:51.110Z,33.75
2019-01-28T15:23:51.313Z,33.75
2019-01-28T15:24:51.437Z,33.75
2019-01-28T15:25:51.617Z,22.50
2019-01-28T15:26:51.752Z,22.50
2019-01-28T15:27:51.957Z,22.50
2019-01-28T15:28:52.074Z,22.50
2019-01-28T15:29:52.218Z,16.88
2019-01-28T15:30:52.386Z,16.88
2019-01-28T15:31:52.610Z,16.88
2019-01-28T15:32:52.686Z,16.88
2019-01-28T15:33:52.869Z,11.25
2019-01-28T15:34:53.043Z,11.25
2019-01-28T15:35:53.163Z,11.25
2019-01-28T15:36:53.295Z,5.63
2019-01-28T15:37:53.455Z,5.63
2019-01-28T15:38:53.677Z,5.63
2019-01-28T15:39:53.793Z,5.63
2019-01-28T15:40:54.003Z,5.63
2019-01-28T15:41:54.102Z,5.63
2019-01-28T15:42:54.300Z,5.63
2019-01-28T15:43:54.385Z,5.63
2019-01-28T15:44:54.575Z,5.63
2019-01-28T15:45:54.702Z,5.63
2019-01-28T15:46:54.898Z,0.00
2019-01-28T15:47:55.119Z,5.63
2019-01-28T15:48:55.224Z,5.63
2019-01-28T15:49:55.411Z,0.00
2019-01-28T15:50:55.486Z,0.00
2019-01-28T15:51:55.705Z,0.00
2019-01-28T15:52:55.874Z,0.00
2019-01-28T15:53:56.008Z,0.00
2019-01-28T15:54:56.168Z,0.00
2019-01-28T15:55:56.286Z,0.00
2019-01-28T15:56:56.493Z,0.00
2019-01-28T15:57:56.640Z,0.00
2019-01-28T15:58:56.756Z,0.00
2019-01-28T15:59:56.919Z,0.00
2019-01-28T16:00:57.098Z,0.00
2019-01-28T16:01:57.290Z,0.00
2019-01-28T16:02:57.401Z,0.00
2019-01-28T16:03:57.553Z,0.00
2019-01-28T16:04:57.678Z,0.00
2019-01-28T16:05:57.891Z,0.00
2019-01-28T16:06:58.039Z,0.00
2019-01-28T16:07:58.221Z,0.00
2019-01-28T16:08:58.309Z,0.00
2019-01-28T16:09:58.529Z,0.00
2019-01-28T16:10:58.719Z,0.00
2019-01-28T16:11:58.869Z,0.00
2019-01-28T16:12:58.985Z,0.00
2019-01-28T16:13:59.130Z,0.00
2019-01-28T16:14:59.348Z,0.00
2019-01-28T16:15:59.516Z,0.00
2019-01-28T16:16:59.618Z,0.00
2019-01-28T16:17:59.728Z,0.00
2019-01-28T16:18:59.998Z,0.00
2019-01-28T16:20:00.319Z,0.00
2019-01-28T16:21:00.250Z,0.00
2019-01-28T16:22:00.360Z,0.00
2019-01-28T16:23:00.555Z,0.00
2019-01-28T16:24:00.731Z,0.00
2019-01-28T16:25:00.884Z,0.00
2019-01-28T16:26:01.059Z,0.00
2019-01-28T16:27:01.256Z,0.00
2019-01-28T16:28:01.288Z,0.00
2019-01-28T16:29:01.484Z,0.00
2019-01-28T16:30:01.648Z,0.00
2019-01-28T16:31:01.804Z,0.00
2019-01-28T16:32:02.862Z,0.00
2019-01-28T16:33:02.083Z,0.00
2019-01-28T16:34:02.274Z,0.00
2019-01-28T16:35:02.436Z,0.00
2019-01-28T16:36:02.646Z,0.00
2019-01-28T16:37:02.752Z,0.00
2019-01-28T16:38:02.931Z,0.00
2019-01-28T16:39:03.084Z,0.00
2019-01-28T16:40:03.289Z,0.00
2019-01-28T16:41:03.424Z,0.00
2019-01-28T16:42:03.569Z,0.00
2019-01-28T16:43:03.751Z,0.00
2019-01-28T16:44:03.892Z,0.00
2019-01-28T16:45:04.035Z,0.00
2019-01-28T16:46:04.230Z,0.00
2019-01-28T16:47:04.369Z,0.00
2019-01-28T16:48:04.542Z,0.00
2019-01-28T16:49:04.653Z,0.00
2019-01-28T16:50:04.857Z,0.00
2019-01-28T16:51:05.014Z,0.00
2019-01-28T16:52:05.177Z,0.00
2019-01-28T16:53:05.294Z,0.00
2019-01-28T16:54:05.441Z,0.00